sensor_id;sensor_type;location;lat;lon;timestamp;temperature;humidity
22167;DHT22;11249;52.468;13.776;2023-03-12T00:02:01;0.00;99.90
22167;DHT22;11249;52.468;13.776;2023-03-12T00:04:27;-0.10;99.90
22167;DHT22;11249;52.468;13.776;2023-03-12T00:06:54;-0.10;99.90
22167;DHT22;11249;52.468;13.776;2023-03-12T00:09:21;-0.10;99.90
22167;DHT22;11249;52.468;13.776;2023-03-12T00:11:49;-0.10;99.90
22167;DHT22;11249;52.468;13.776;2023-03-12T00:14:15;-0.10;99.90
22167;DHT22;11249;52.468;13.776;2023-03-12T00:16:42;-0.10;99.90
22167;DHT22;11249;52.468;13.776;2023-03-12T00:19:10;-0.20;99.90
22167;DHT22;11249;52.468;13.776;2023-03-12T00:21:38;-0.10;99.90
22167;DHT22;11249;52.468;13.776;2023-03-12T00:24:06;-0.10;99.90
22167;DHT22;11249;52.468;13.776;2023-03-12T00:26:33;0.00;99.90
22167;DHT22;11249;52.468;13.776;2023-03-12T00:29:00;0.00;99.90
22167;DHT22;11249;52.468;13.776;2023-03-12T00:31:29;-0.10;99.90
22167;DHT22;11249;52.468;13.776;2023-03-12T00:33:59;-0.10;99.90
22167;DHT22;11249;52.468;13.776;2023-03-12T00:36:28;-0.10;99.90
22167;DHT22;11249;52.468;13.776;2023-03-12T00:38:56;-0.20;99.90
22167;DHT22;11249;52.468;13.776;2023-03-12T00:41:24;-0.20;99.90
22167;DHT22;11249;52.468;13.776;2023-03-12T00:43:52;-0.20;99.90
22167;DHT22;11249;52.468;13.776;2023-03-12T00:46:19;-0.20;99.90
22167;DHT22;11249;52.468;13.776;2023-03-12T00:48:46;-0.20;99.90
22167;DHT22;11249;52.468;13.776;2023-03-12T00:51:13;-0.20;99.90
22167;DHT22;11249;52.468;13.776;2023-03-12T00:53:39;-0.20;99.90
22167;DHT22;11249;52.468;13.776;2023-03-12T00:56:06;-0.30;99.90
22167;DHT22;11249;52.468;13.776;2023-03-12T00:58:33;-0.30;99.90
22167;DHT22;11249;52.468;13.776;2023-03-12T01:01:00;-0.20;99.90
22167;DHT22;11249;52.468;13.776;2023-03-12T01:03:27;-0.20;99.90
22167;DHT22;11249;52.468;13.776;2023-03-12T01:05:53;-0.20;99.90
22167;DHT22;11249;52.468;13.776;2023-03-12T01:08:21;-0.20;99.90
22167;DHT22;11249;52.468;13.776;2023-03-12T01:10:47;-0.10;99.90
22167;DHT22;11249;52.468;13.776;2023-03-12T01:13:15;-0.10;99.90
22167;DHT22;11249;52.468;13.776;2023-03-12T01:15:42;-0.10;99.90
22167;DHT22;11249;52.468;13.776;2023-03-12T01:18:08;-0.10;99.90
22167;DHT22;11249;52.468;13.776;2023-03-12T01:20:35;-0.10;99.90
22167;DHT22;11249;52.468;13.776;2023-03-12T01:23:02;0.00;99.90
22167;DHT22;11249;52.468;13.776;2023-03-12T01:25:29;0.10;99.90
22167;DHT22;11249;52.468;13.776;2023-03-12T01:27:55;0.20;99.90
22167;DHT22;11249;52.468;13.776;2023-03-12T01:30:22;0.30;99.90
22167;DHT22;11249;52.468;13.776;2023-03-12T01:32:50;0.40;99.90
22167;DHT22;11249;52.468;13.776;2023-03-12T01:35:18;0.50;99.90
22167;DHT22;11249;52.468;13.776;2023-03-12T01:37:44;0.50;99.90
22167;DHT22;11249;52.468;13.776;2023-03-12T01:40:15;0.60;99.90
22167;DHT22;11249;52.468;13.776;2023-03-12T01:42:42;0.70;99.90
22167;DHT22;11249;52.468;13.776;2023-03-12T01:48:17;0.80;99.90
22167;DHT22;11249;52.468;13.776;2023-03-12T01:50:44;0.90;99.90
22167;DHT22;11249;52.468;13.776;2023-03-12T01:53:11;1.00;99.90
22167;DHT22;11249;52.468;13.776;2023-03-12T01:55:38;1.00;99.90
22167;DHT22;11249;52.468;13.776;2023-03-12T01:58:05;1.10;99.90
22167;DHT22;11249;52.468;13.776;2023-03-12T02:00:33;1.00;99.90
22167;DHT22;11249;52.468;13.776;2023-03-12T02:03:05;1.10;99.90
22167;DHT22;11249;52.468;13.776;2023-03-12T02:05:46;1.20;99.90
22167;DHT22;11249;52.468;13.776;2023-03-12T02:08:15;1.20;99.90
22167;DHT22;11249;52.468;13.776;2023-03-12T02:10:42;1.30;99.90
22167;DHT22;11249;52.468;13.776;2023-03-12T02:13:09;1.30;99.90
22167;DHT22;11249;52.468;13.776;2023-03-12T02:15:37;1.30;99.90
22167;DHT22;11249;52.468;13.776;2023-03-12T02:18:07;1.40;99.90
22167;DHT22;11249;52.468;13.776;2023-03-12T02:21:12;1.40;99.90
22167;DHT22;11249;52.468;13.776;2023-03-12T02:26:10;1.40;99.90
22167;DHT22;11249;52.468;13.776;2023-03-12T02:28:38;1.40;99.90
22167;DHT22;11249;52.468;13.776;2023-03-12T02:31:13;1.50;99.90
22167;DHT22;11249;52.468;13.776;2023-03-12T02:33:41;1.50;99.90
22167;DHT22;11249;52.468;13.776;2023-03-12T02:36:08;1.60;99.90
22167;DHT22;11249;52.468;13.776;2023-03-12T02:38:45;1.50;99.90
22167;DHT22;11249;52.468;13.776;2023-03-12T02:41:20;1.50;99.90
22167;DHT22;11249;52.468;13.776;2023-03-12T02:44:05;1.50;99.90
22167;DHT22;11249;52.468;13.776;2023-03-12T02:46:39;1.50;99.90
22167;DHT22;11249;52.468;13.776;2023-03-12T02:49:06;1.50;99.90
22167;DHT22;11249;52.468;13.776;2023-03-12T02:51:34;1.50;99.90
22167;DHT22;11249;52.468;13.776;2023-03-12T02:54:01;1.50;99.90
22167;DHT22;11249;52.468;13.776;2023-03-12T02:56:28;1.50;99.90
22167;DHT22;11249;52.468;13.776;2023-03-12T02:58:55;1.40;99.90
22167;DHT22;11249;52.468;13.776;2023-03-12T03:01:22;1.30;99.90
22167;DHT22;11249;52.468;13.776;2023-03-12T03:03:49;1.30;99.90
22167;DHT22;11249;52.468;13.776;2023-03-12T03:06:16;1.20;99.90
22167;DHT22;11249;52.468;13.776;2023-03-12T03:08:43;1.20;99.90
22167;DHT22;11249;52.468;13.776;2023-03-12T03:11:10;1.10;99.90
22167;DHT22;11249;52.468;13.776;2023-03-12T03:13:37;1.10;99.90
22167;DHT22;11249;52.468;13.776;2023-03-12T03:16:04;1.10;99.90
22167;DHT22;11249;52.468;13.776;2023-03-12T03:18:31;1.00;99.90
22167;DHT22;11249;52.468;13.776;2023-03-12T03:21:01;1.00;99.90
22167;DHT22;11249;52.468;13.776;2023-03-12T03:23:28;1.00;99.90
22167;DHT22;11249;52.468;13.776;2023-03-12T03:25:55;0.90;99.90
22167;DHT22;11249;52.468;13.776;2023-03-12T03:28:23;0.90;99.90
22167;DHT22;11249;52.468;13.776;2023-03-12T03:30:54;0.90;99.90
22167;DHT22;11249;52.468;13.776;2023-03-12T03:33:24;0.80;99.90
22167;DHT22;11249;52.468;13.776;2023-03-12T03:35:50;0.70;99.90
22167;DHT22;11249;52.468;13.776;2023-03-12T03:38:17;0.70;99.90
22167;DHT22;11249;52.468;13.776;2023-03-12T03:40:44;0.70;99.90
22167;DHT22;11249;52.468;13.776;2023-03-12T03:43:11;0.60;99.90
22167;DHT22;11249;52.468;13.776;2023-03-12T03:45:38;0.60;99.90
22167;DHT22;11249;52.468;13.776;2023-03-12T03:48:05;0.60;99.90
22167;DHT22;11249;52.468;13.776;2023-03-12T03:50:31;0.60;99.90
22167;DHT22;11249;52.468;13.776;2023-03-12T03:52:58;0.50;99.90
22167;DHT22;11249;52.468;13.776;2023-03-12T03:55:25;0.50;99.90
22167;DHT22;11249;52.468;13.776;2023-03-12T03:57:51;0.40;99.90
22167;DHT22;11249;52.468;13.776;2023-03-12T04:00:18;0.40;99.90
22167;DHT22;11249;52.468;13.776;2023-03-12T04:02:45;0.40;99.90
22167;DHT22;11249;52.468;13.776;2023-03-12T04:05:11;0.40;99.90
22167;DHT22;11249;52.468;13.776;2023-03-12T04:07:38;0.40;99.90
22167;DHT22;11249;52.468;13.776;2023-03-12T04:10:05;0.40;99.90
22167;DHT22;11249;52.468;13.776;2023-03-12T04:12:32;0.40;99.90
22167;DHT22;11249;52.468;13.776;2023-03-12T04:14:59;0.40;99.90
22167;DHT22;11249;52.468;13.776;2023-03-12T04:17:26;0.30;99.90
22167;DHT22;11249;52.468;13.776;2023-03-12T04:19:52;0.30;99.90
22167;DHT22;11249;52.468;13.776;2023-03-12T04:22:19;0.30;99.90
22167;DHT22;11249;52.468;13.776;2023-03-12T04:24:46;0.30;99.90
22167;DHT22;11249;52.468;13.776;2023-03-12T04:27:12;0.30;99.90
22167;DHT22;11249;52.468;13.776;2023-03-12T04:29:39;0.30;99.90
22167;DHT22;11249;52.468;13.776;2023-03-12T04:32:07;0.20;99.90
22167;DHT22;11249;52.468;13.776;2023-03-12T04:34:34;0.20;99.90
22167;DHT22;11249;52.468;13.776;2023-03-12T04:37:01;0.10;99.90
22167;DHT22;11249;52.468;13.776;2023-03-12T04:39:28;0.10;99.90
22167;DHT22;11249;52.468;13.776;2023-03-12T04:41:55;0.20;99.90
22167;DHT22;11249;52.468;13.776;2023-03-12T04:44:21;0.10;99.90
22167;DHT22;11249;52.468;13.776;2023-03-12T04:46:48;0.10;99.90
22167;DHT22;11249;52.468;13.776;2023-03-12T04:49:15;0.10;99.90
22167;DHT22;11249;52.468;13.776;2023-03-12T04:51:42;0.10;99.90
22167;DHT22;11249;52.468;13.776;2023-03-12T04:54:08;0.00;99.90
22167;DHT22;11249;52.468;13.776;2023-03-12T04:56:35;0.00;99.90
22167;DHT22;11249;52.468;13.776;2023-03-12T04:59:02;0.00;99.90
22167;DHT22;11249;52.468;13.776;2023-03-12T05:01:31;0.00;99.90
22167;DHT22;11249;52.468;13.776;2023-03-12T05:03:59;0.00;99.90
22167;DHT22;11249;52.468;13.776;2023-03-12T05:06:25;-0.10;99.90
22167;DHT22;11249;52.468;13.776;2023-03-12T05:08:52;-0.10;99.90
22167;DHT22;11249;52.468;13.776;2023-03-12T05:11:19;-0.10;99.90
22167;DHT22;11249;52.468;13.776;2023-03-12T05:13:47;-0.10;99.90
22167;DHT22;11249;52.468;13.776;2023-03-12T05:16:14;-0.20;99.90
22167;DHT22;11249;52.468;13.776;2023-03-12T05:18:42;-0.10;99.90
22167;DHT22;11249;52.468;13.776;2023-03-12T05:21:15;-0.10;99.90
22167;DHT22;11249;52.468;13.776;2023-03-12T05:23:42;-0.10;99.90
22167;DHT22;11249;52.468;13.776;2023-03-12T05:26:28;-0.20;99.90
22167;DHT22;11249;52.468;13.776;2023-03-12T05:28:54;-0.20;99.90
22167;DHT22;11249;52.468;13.776;2023-03-12T05:31:21;-0.20;99.90
22167;DHT22;11249;52.468;13.776;2023-03-12T05:33:49;-0.10;99.90
22167;DHT22;11249;52.468;13.776;2023-03-12T05:36:18;-0.20;99.90
22167;DHT22;11249;52.468;13.776;2023-03-12T05:38:45;-0.20;99.90
22167;DHT22;11249;52.468;13.776;2023-03-12T05:41:29;-0.20;99.90
22167;DHT22;11249;52.468;13.776;2023-03-12T05:43:57;-0.20;99.90
22167;DHT22;11249;52.468;13.776;2023-03-12T05:46:25;-0.20;99.90
22167;DHT22;11249;52.468;13.776;2023-03-12T05:48:52;-0.30;99.90
22167;DHT22;11249;52.468;13.776;2023-03-12T05:51:20;-0.30;99.90
22167;DHT22;11249;52.468;13.776;2023-03-12T05:53:47;-0.30;99.90
22167;DHT22;11249;52.468;13.776;2023-03-12T05:56:15;-0.40;99.90
22167;DHT22;11249;52.468;13.776;2023-03-12T05:58:43;-0.40;99.90
22167;DHT22;11249;52.468;13.776;2023-03-12T06:01:19;-0.40;99.90
22167;DHT22;11249;52.468;13.776;2023-03-12T06:03:46;-0.40;99.90
22167;DHT22;11249;52.468;13.776;2023-03-12T06:06:13;-0.40;99.90
22167;DHT22;11249;52.468;13.776;2023-03-12T06:08:41;-0.40;99.90
22167;DHT22;11249;52.468;13.776;2023-03-12T06:11:09;-0.40;99.90
22167;DHT22;11249;52.468;13.776;2023-03-12T06:13:36;-0.40;99.90
22167;DHT22;11249;52.468;13.776;2023-03-12T06:16:13;-0.30;99.90
22167;DHT22;11249;52.468;13.776;2023-03-12T06:18:40;-0.20;99.90
22167;DHT22;11249;52.468;13.776;2023-03-12T06:21:18;-0.20;99.90
22167;DHT22;11249;52.468;13.776;2023-03-12T06:23:46;-0.20;99.90
22167;DHT22;11249;52.468;13.776;2023-03-12T06:26:14;-0.20;99.90
22167;DHT22;11249;52.468;13.776;2023-03-12T06:28:42;-0.20;99.90
22167;DHT22;11249;52.468;13.776;2023-03-12T06:31:08;-0.30;99.90
22167;DHT22;11249;52.468;13.776;2023-03-12T06:33:35;-0.30;99.90
22167;DHT22;11249;52.468;13.776;2023-03-12T06:36:03;-0.20;99.90
22167;DHT22;11249;52.468;13.776;2023-03-12T06:38:31;-0.10;99.90
22167;DHT22;11249;52.468;13.776;2023-03-12T06:41:10;0.00;99.90
22167;DHT22;11249;52.468;13.776;2023-03-12T06:43:38;0.00;99.90
22167;DHT22;11249;52.468;13.776;2023-03-12T06:46:07;0.00;99.90
22167;DHT22;11249;52.468;13.776;2023-03-12T06:48:34;0.10;99.90
22167;DHT22;11249;52.468;13.776;2023-03-12T06:51:03;0.10;99.90
22167;DHT22;11249;52.468;13.776;2023-03-12T06:53:30;0.10;99.90
22167;DHT22;11249;52.468;13.776;2023-03-12T06:55:58;0.20;99.90
22167;DHT22;11249;52.468;13.776;2023-03-12T06:58:25;0.30;99.90
22167;DHT22;11249;52.468;13.776;2023-03-12T07:00:52;0.30;99.90
22167;DHT22;11249;52.468;13.776;2023-03-12T07:03:19;0.40;99.90
22167;DHT22;11249;52.468;13.776;2023-03-12T07:05:49;0.50;99.90
22167;DHT22;11249;52.468;13.776;2023-03-12T07:08:16;0.50;99.90
22167;DHT22;11249;52.468;13.776;2023-03-12T07:10:44;0.60;99.90
22167;DHT22;11249;52.468;13.776;2023-03-12T07:13:11;0.60;99.90
22167;DHT22;11249;52.468;13.776;2023-03-12T07:15:38;0.60;99.90
22167;DHT22;11249;52.468;13.776;2023-03-12T07:18:09;0.70;99.90
22167;DHT22;11249;52.468;13.776;2023-03-12T07:20:38;0.80;99.90
22167;DHT22;11249;52.468;13.776;2023-03-12T07:23:05;0.90;99.90
22167;DHT22;11249;52.468;13.776;2023-03-12T07:25:39;0.90;99.90
22167;DHT22;11249;52.468;13.776;2023-03-12T07:28:07;1.00;99.90
22167;DHT22;11249;52.468;13.776;2023-03-12T07:30:34;1.00;99.90
22167;DHT22;11249;52.468;13.776;2023-03-12T07:33:05;1.10;99.90
22167;DHT22;11249;52.468;13.776;2023-03-12T07:35:33;1.20;99.90
22167;DHT22;11249;52.468;13.776;2023-03-12T07:38:00;1.20;99.90
22167;DHT22;11249;52.468;13.776;2023-03-12T07:40:28;1.30;99.90
22167;DHT22;11249;52.468;13.776;2023-03-12T07:42:54;1.30;99.90
22167;DHT22;11249;52.468;13.776;2023-03-12T07:45:22;1.30;99.90
22167;DHT22;11249;52.468;13.776;2023-03-12T07:47:49;1.40;99.90
22167;DHT22;11249;52.468;13.776;2023-03-12T07:50:17;1.40;99.90
22167;DHT22;11249;52.468;13.776;2023-03-12T07:52:44;1.40;99.90
22167;DHT22;11249;52.468;13.776;2023-03-12T07:55:12;1.50;99.90
22167;DHT22;11249;52.468;13.776;2023-03-12T07:57:39;1.50;99.90
22167;DHT22;11249;52.468;13.776;2023-03-12T08:00:06;1.50;99.90
22167;DHT22;11249;52.468;13.776;2023-03-12T08:02:35;1.50;99.90
22167;DHT22;11249;52.468;13.776;2023-03-12T08:05:02;1.60;99.90
22167;DHT22;11249;52.468;13.776;2023-03-12T08:07:30;1.60;99.90
22167;DHT22;11249;52.468;13.776;2023-03-12T08:09:58;1.70;99.90
22167;DHT22;11249;52.468;13.776;2023-03-12T08:12:26;1.70;99.90
22167;DHT22;11249;52.468;13.776;2023-03-12T08:14:53;1.80;99.90
22167;DHT22;11249;52.468;13.776;2023-03-12T08:17:20;1.90;99.90
22167;DHT22;11249;52.468;13.776;2023-03-12T08:19:47;1.90;99.90
22167;DHT22;11249;52.468;13.776;2023-03-12T08:22:14;2.00;99.90
22167;DHT22;11249;52.468;13.776;2023-03-12T08:24:41;2.10;99.90
22167;DHT22;11249;52.468;13.776;2023-03-12T08:27:08;2.10;99.90
22167;DHT22;11249;52.468;13.776;2023-03-12T08:29:35;2.10;99.90
22167;DHT22;11249;52.468;13.776;2023-03-12T08:32:01;2.30;99.90
22167;DHT22;11249;52.468;13.776;2023-03-12T08:34:32;2.30;99.90
22167;DHT22;11249;52.468;13.776;2023-03-12T08:36:59;2.30;99.90
22167;DHT22;11249;52.468;13.776;2023-03-12T08:39:26;2.40;99.90
22167;DHT22;11249;52.468;13.776;2023-03-12T08:41:53;2.40;99.90
22167;DHT22;11249;52.468;13.776;2023-03-12T08:44:21;2.50;99.90
22167;DHT22;11249;52.468;13.776;2023-03-12T08:46:49;2.50;99.90
22167;DHT22;11249;52.468;13.776;2023-03-12T08:49:16;2.60;99.90
22167;DHT22;11249;52.468;13.776;2023-03-12T08:51:43;2.60;99.90
22167;DHT22;11249;52.468;13.776;2023-03-12T08:54:10;2.70;99.90
22167;DHT22;11249;52.468;13.776;2023-03-12T08:56:36;2.70;99.90
22167;DHT22;11249;52.468;13.776;2023-03-12T08:59:08;2.80;99.90
22167;DHT22;11249;52.468;13.776;2023-03-12T09:01:35;2.90;99.90
22167;DHT22;11249;52.468;13.776;2023-03-12T09:04:03;3.00;99.90
22167;DHT22;11249;52.468;13.776;2023-03-12T09:06:30;3.10;99.90
22167;DHT22;11249;52.468;13.776;2023-03-12T09:08:56;3.20;99.90
22167;DHT22;11249;52.468;13.776;2023-03-12T09:11:24;3.30;99.90
22167;DHT22;11249;52.468;13.776;2023-03-12T09:13:51;3.30;99.90
22167;DHT22;11249;52.468;13.776;2023-03-12T09:16:38;3.30;99.90
22167;DHT22;11249;52.468;13.776;2023-03-12T09:19:04;3.40;99.90
22167;DHT22;11249;52.468;13.776;2023-03-12T09:21:31;3.50;99.90
22167;DHT22;11249;52.468;13.776;2023-03-12T09:23:58;3.40;99.90
22167;DHT22;11249;52.468;13.776;2023-03-12T09:26:25;3.50;99.90
22167;DHT22;11249;52.468;13.776;2023-03-12T09:28:52;3.60;99.90
22167;DHT22;11249;52.468;13.776;2023-03-12T09:31:18;3.70;99.90
22167;DHT22;11249;52.468;13.776;2023-03-12T09:33:45;3.80;99.90
22167;DHT22;11249;52.468;13.776;2023-03-12T09:36:12;3.90;99.90
22167;DHT22;11249;52.468;13.776;2023-03-12T09:38:39;4.10;99.90
22167;DHT22;11249;52.468;13.776;2023-03-12T09:41:24;4.30;99.90
22167;DHT22;11249;52.468;13.776;2023-03-12T09:43:59;4.40;99.90
22167;DHT22;11249;52.468;13.776;2023-03-12T09:46:42;4.50;99.90
22167;DHT22;11249;52.468;13.776;2023-03-12T09:49:35;4.60;99.90
22167;DHT22;11249;52.468;13.776;2023-03-12T09:52:17;4.70;99.90
22167;DHT22;11249;52.468;13.776;2023-03-12T09:55:09;4.80;99.90
22167;DHT22;11249;52.468;13.776;2023-03-12T09:57:36;4.90;99.90
22167;DHT22;11249;52.468;13.776;2023-03-12T10:00:04;5.10;99.90
22167;DHT22;11249;52.468;13.776;2023-03-12T10:03:08;5.20;99.90
22167;DHT22;11249;52.468;13.776;2023-03-12T10:05:46;5.10;99.90
22167;DHT22;11249;52.468;13.776;2023-03-12T10:08:28;5.10;99.90
22167;DHT22;11249;52.468;13.776;2023-03-12T10:17:15;5.30;99.90
22167;DHT22;11249;52.468;13.776;2023-03-12T10:23:12;5.50;99.90
22167;DHT22;11249;52.468;13.776;2023-03-12T10:25:46;5.70;99.90
22167;DHT22;11249;52.468;13.776;2023-03-12T10:28:22;5.80;99.90
22167;DHT22;11249;52.468;13.776;2023-03-12T10:30:54;5.90;99.90
22167;DHT22;11249;52.468;13.776;2023-03-12T10:33:38;5.90;99.90
22167;DHT22;11249;52.468;13.776;2023-03-12T10:36:16;6.10;99.90
22167;DHT22;11249;52.468;13.776;2023-03-12T10:38:44;6.30;99.90
22167;DHT22;11249;52.468;13.776;2023-03-12T10:41:17;6.40;99.90
22167;DHT22;11249;52.468;13.776;2023-03-12T10:43:44;6.30;99.90
22167;DHT22;11249;52.468;13.776;2023-03-12T10:46:22;6.40;99.90
22167;DHT22;11249;52.468;13.776;2023-03-12T10:49:21;6.40;99.90
22167;DHT22;11249;52.468;13.776;2023-03-12T10:54:31;6.60;99.90
22167;DHT22;11249;52.468;13.776;2023-03-12T10:56:58;6.60;99.90
22167;DHT22;11249;52.468;13.776;2023-03-12T10:59:28;6.60;99.90
22167;DHT22;11249;52.468;13.776;2023-03-12T11:01:55;6.50;99.90
22167;DHT22;11249;52.468;13.776;2023-03-12T11:09:39;6.70;99.90
22167;DHT22;11249;52.468;13.776;2023-03-12T11:12:27;6.90;99.90
22167;DHT22;11249;52.468;13.776;2023-03-12T11:14:55;6.90;99.90
22167;DHT22;11249;52.468;13.776;2023-03-12T11:17:27;7.10;99.90
22167;DHT22;11249;52.468;13.776;2023-03-12T11:19:55;7.20;99.90
22167;DHT22;11249;52.468;13.776;2023-03-12T11:22:29;7.30;99.90
22167;DHT22;11249;52.468;13.776;2023-03-12T11:24:58;7.20;99.90
22167;DHT22;11249;52.468;13.776;2023-03-12T11:27:40;7.20;99.90
22167;DHT22;11249;52.468;13.776;2023-03-12T11:30:15;7.20;99.90
22167;DHT22;11249;52.468;13.776;2023-03-12T11:32:47;7.20;99.90
22167;DHT22;11249;52.468;13.776;2023-03-12T11:35:18;7.20;99.90
22167;DHT22;11249;52.468;13.776;2023-03-12T11:40:56;7.30;99.90
22167;DHT22;11249;52.468;13.776;2023-03-12T11:43:54;7.20;99.90
22167;DHT22;11249;52.468;13.776;2023-03-12T11:46:36;7.30;99.90
22167;DHT22;11249;52.468;13.776;2023-03-12T11:57:44;8.00;99.90
22167;DHT22;11249;52.468;13.776;2023-03-12T12:00:20;8.00;99.90
22167;DHT22;11249;52.468;13.776;2023-03-12T12:03:22;7.80;99.90
22167;DHT22;11249;52.468;13.776;2023-03-12T12:17:17;7.40;99.90
22167;DHT22;11249;52.468;13.776;2023-03-12T12:19:58;7.20;99.90
22167;DHT22;11249;52.468;13.776;2023-03-12T12:22:45;7.40;99.90
22167;DHT22;11249;52.468;13.776;2023-03-12T12:25:27;7.60;99.90
22167;DHT22;11249;52.468;13.776;2023-03-12T12:36:45;7.80;99.90
22167;DHT22;11249;52.468;13.776;2023-03-12T12:39:18;8.20;99.90
22167;DHT22;11249;52.468;13.776;2023-03-12T12:41:54;8.40;99.90
22167;DHT22;11249;52.468;13.776;2023-03-12T12:44:26;8.50;99.90
22167;DHT22;11249;52.468;13.776;2023-03-12T12:46:58;8.50;99.90
22167;DHT22;11249;52.468;13.776;2023-03-12T12:49:42;8.30;99.90
22167;DHT22;11249;52.468;13.776;2023-03-12T12:52:14;8.40;99.90
22167;DHT22;11249;52.468;13.776;2023-03-12T12:57:41;7.90;99.90
22167;DHT22;11249;52.468;13.776;2023-03-12T13:00:16;7.90;99.90
22167;DHT22;11249;52.468;13.776;2023-03-12T13:02:46;7.70;99.90
22167;DHT22;11249;52.468;13.776;2023-03-12T13:05:24;7.60;99.90
22167;DHT22;11249;52.468;13.776;2023-03-12T13:07:51;7.70;99.90
22167;DHT22;11249;52.468;13.776;2023-03-12T13:13:10;7.80;99.90
22167;DHT22;11249;52.468;13.776;2023-03-12T13:15:39;7.80;99.90
22167;DHT22;11249;52.468;13.776;2023-03-12T13:18:28;7.80;99.90
22167;DHT22;11249;52.468;13.776;2023-03-12T13:21:06;7.90;99.90
22167;DHT22;11249;52.468;13.776;2023-03-12T13:26:22;8.10;99.90
22167;DHT22;11249;52.468;13.776;2023-03-12T13:37:02;7.70;99.90
22167;DHT22;11249;52.468;13.776;2023-03-12T13:39:34;7.60;99.90
22167;DHT22;11249;52.468;13.776;2023-03-12T13:42:35;7.50;99.90
22167;DHT22;11249;52.468;13.776;2023-03-12T13:45:26;7.50;99.90
22167;DHT22;11249;52.468;13.776;2023-03-12T13:47:54;7.50;99.90
22167;DHT22;11249;52.468;13.776;2023-03-12T13:50:22;7.50;99.90
22167;DHT22;11249;52.468;13.776;2023-03-12T13:53:03;7.50;99.90
22167;DHT22;11249;52.468;13.776;2023-03-12T13:55:33;7.50;99.90
22167;DHT22;11249;52.468;13.776;2023-03-12T13:58:15;7.40;99.90
22167;DHT22;11249;52.468;13.776;2023-03-12T14:01:00;7.30;99.90
22167;DHT22;11249;52.468;13.776;2023-03-12T14:03:34;7.20;99.90
22167;DHT22;11249;52.468;13.776;2023-03-12T14:11:32;7.30;99.90
22167;DHT22;11249;52.468;13.776;2023-03-12T14:17:34;7.10;99.90
22167;DHT22;11249;52.468;13.776;2023-03-12T14:20:20;7.10;99.90
22167;DHT22;11249;52.468;13.776;2023-03-12T14:22:58;7.00;99.90
22167;DHT22;11249;52.468;13.776;2023-03-12T14:25:35;7.10;99.90
22167;DHT22;11249;52.468;13.776;2023-03-12T14:28:09;7.10;99.90
22167;DHT22;11249;52.468;13.776;2023-03-12T14:30:47;7.20;99.90
22167;DHT22;11249;52.468;13.776;2023-03-12T14:33:15;7.00;99.90
22167;DHT22;11249;52.468;13.776;2023-03-12T14:35:52;7.10;99.90
22167;DHT22;11249;52.468;13.776;2023-03-12T14:38:25;7.10;99.90
22167;DHT22;11249;52.468;13.776;2023-03-12T14:41:14;7.20;99.90
22167;DHT22;11249;52.468;13.776;2023-03-12T14:43:42;7.20;99.90
22167;DHT22;11249;52.468;13.776;2023-03-12T14:46:15;7.10;99.90
22167;DHT22;11249;52.468;13.776;2023-03-12T14:48:45;7.20;99.90
22167;DHT22;11249;52.468;13.776;2023-03-12T14:51:18;7.20;99.90
22167;DHT22;11249;52.468;13.776;2023-03-12T14:53:49;7.10;99.90
22167;DHT22;11249;52.468;13.776;2023-03-12T14:56:24;6.90;99.90
22167;DHT22;11249;52.468;13.776;2023-03-12T14:58:56;6.80;99.90
22167;DHT22;11249;52.468;13.776;2023-03-12T15:01:29;6.70;99.90
22167;DHT22;11249;52.468;13.776;2023-03-12T15:04:02;6.60;99.90
22167;DHT22;11249;52.468;13.776;2023-03-12T15:06:42;6.60;99.90
22167;DHT22;11249;52.468;13.776;2023-03-12T15:09:19;6.50;99.90
22167;DHT22;11249;52.468;13.776;2023-03-12T15:11:56;6.40;99.90
22167;DHT22;11249;52.468;13.776;2023-03-12T15:14:26;6.40;99.90
22167;DHT22;11249;52.468;13.776;2023-03-12T15:16:55;6.40;99.90
22167;DHT22;11249;52.468;13.776;2023-03-12T15:19:29;6.30;99.90
22167;DHT22;11249;52.468;13.776;2023-03-12T15:21:58;6.30;99.90
22167;DHT22;11249;52.468;13.776;2023-03-12T15:24:37;6.20;99.90
22167;DHT22;11249;52.468;13.776;2023-03-12T15:29:57;6.20;99.90
22167;DHT22;11249;52.468;13.776;2023-03-12T15:32:25;6.10;99.90
22167;DHT22;11249;52.468;13.776;2023-03-12T15:34:54;6.20;99.90
22167;DHT22;11249;52.468;13.776;2023-03-12T15:37:29;6.10;99.90
22167;DHT22;11249;52.468;13.776;2023-03-12T15:40:15;6.10;99.90
22167;DHT22;11249;52.468;13.776;2023-03-12T15:42:43;6.10;99.90
22167;DHT22;11249;52.468;13.776;2023-03-12T15:45:21;6.10;99.90
22167;DHT22;11249;52.468;13.776;2023-03-12T15:47:51;6.00;99.90
22167;DHT22;11249;52.468;13.776;2023-03-12T15:50:26;6.00;99.90
22167;DHT22;11249;52.468;13.776;2023-03-12T15:53:01;6.00;99.90
22167;DHT22;11249;52.468;13.776;2023-03-12T15:55:30;5.90;99.90
22167;DHT22;11249;52.468;13.776;2023-03-12T15:57:57;5.80;99.90
22167;DHT22;11249;52.468;13.776;2023-03-12T16:00:42;5.80;99.90
22167;DHT22;11249;52.468;13.776;2023-03-12T16:03:16;5.70;99.90
22167;DHT22;11249;52.468;13.776;2023-03-12T16:05:43;5.60;99.90
22167;DHT22;11249;52.468;13.776;2023-03-12T16:08:15;5.60;99.90
22167;DHT22;11249;52.468;13.776;2023-03-12T16:10:43;5.50;99.90
22167;DHT22;11249;52.468;13.776;2023-03-12T16:13:24;5.50;99.90
22167;DHT22;11249;52.468;13.776;2023-03-12T16:15:54;5.40;99.90
22167;DHT22;11249;52.468;13.776;2023-03-12T16:18:21;5.40;99.90
22167;DHT22;11249;52.468;13.776;2023-03-12T16:20:50;5.40;99.90
22167;DHT22;11249;52.468;13.776;2023-03-12T16:23:17;5.30;99.90
22167;DHT22;11249;52.468;13.776;2023-03-12T16:25:47;5.30;99.90
22167;DHT22;11249;52.468;13.776;2023-03-12T16:28:15;5.20;99.90
22167;DHT22;11249;52.468;13.776;2023-03-12T16:30:43;5.20;99.90
22167;DHT22;11249;52.468;13.776;2023-03-12T16:33:14;5.20;99.90
22167;DHT22;11249;52.468;13.776;2023-03-12T16:35:42;5.10;99.90
22167;DHT22;11249;52.468;13.776;2023-03-12T16:38:09;5.10;99.90
22167;DHT22;11249;52.468;13.776;2023-03-12T16:40:38;5.00;99.90
22167;DHT22;11249;52.468;13.776;2023-03-12T16:43:12;5.00;99.90
22167;DHT22;11249;52.468;13.776;2023-03-12T16:45:42;4.90;99.90
22167;DHT22;11249;52.468;13.776;2023-03-12T16:48:15;4.90;99.90
22167;DHT22;11249;52.468;13.776;2023-03-12T16:50:52;4.90;99.90
22167;DHT22;11249;52.468;13.776;2023-03-12T16:53:20;5.00;99.90
22167;DHT22;11249;52.468;13.776;2023-03-12T16:55:53;4.90;99.90
22167;DHT22;11249;52.468;13.776;2023-03-12T16:58:23;4.90;99.90
22167;DHT22;11249;52.468;13.776;2023-03-12T17:00:52;4.90;99.90
22167;DHT22;11249;52.468;13.776;2023-03-12T17:03:33;4.80;99.90
22167;DHT22;11249;52.468;13.776;2023-03-12T17:06:05;4.80;99.90
22167;DHT22;11249;52.468;13.776;2023-03-12T17:08:32;4.80;99.90
22167;DHT22;11249;52.468;13.776;2023-03-12T17:10:59;4.80;99.90
22167;DHT22;11249;52.468;13.776;2023-03-12T17:13:27;4.80;99.90